Ypenburg, Netherlands
Current Conditions -  °F | °C
As of 11:25 AM on Friday 24 Oct 2014 (Local Time) from EHRD Reporting Station
Light Rain Light Rain  
Wind Chill: 12°   Ceiling: 800
Heat Index: 12°   Visibility: 1.9mi
Dew Point: 11°   Wind: 12mph
Humidity: 94%   Direction: 180°S
Pressure: 30.06"   Gusts: NA
Location:  52.04°N, 4.37°E
Report Text: EHRD 240925Z AUTO 18010KT 140V220 3100 -RADZ FEW007 BKN008BKN010 SCT015CB 12/11 Q1018 TEMPO 9999 BKN012
Loading
Personal Weather Stations






























Interactive Weather Map
Tropical Storm Tracking
New forecast layout! Learn more

10-Day Weather Forecast

Advertisements
Track Severe Weather on mobile